Search for airport 
image banner adimage banner adimage banner ad
image banner ad

02CL - Conover Air Lodge

Located in Frazier Park, United States

ICAO - 02CL, IATA -

Data provided by Airmate  

General information

Coordinates: N34°45'40" W119°3'32"
Elevation is 5160 feet MSL.
Magnetic variation is 14° East
View others Airports in California

Operational data

Special qualification required
Current time UTC:
Current local time:
Weather at : KCMA - Camarillo ( 61 km )
METAR: KCMA 210055Z 20006KT 10SM CLR 23/16 A2989 RMK AO2 SLP129 T02280156
TAF: KCMA 202334Z 2100/2124 23008KT P6SM SKC FM210300 VRB03KT P6SM SKC FM211000 07006KT 5SM HZ SKC FM211700 16010KT P6SM SKC FM212000 24008KT P6SM SKC
View NOTAMs / SUP AIP / TFR affecting this airport [VIEW]
Communications frequencies: [VIEW]

Runways:

RWY identifierQFULength (ft)Width (ft)SurfaceLDA (ft)
16300060EARTH
34300060EARTH

Airport contact information

Address: Frazier Park United States

Satellite view of 02CL